sensor_id;sensor_type;location;lat;lon;timestamp;P1;durP1;ratioP1;P2;durP2;ratioP2
2019;SDS011;1014;51.960;8.542;2023-08-07T00:02:13;26.63;;;24.40;;
2019;SDS011;1014;51.960;8.542;2023-08-07T00:04:40;27.13;;;25.20;;
2019;SDS011;1014;51.960;8.542;2023-08-07T00:07:07;26.27;;;24.37;;
2019;SDS011;1014;51.960;8.542;2023-08-07T00:09:35;25.60;;;23.80;;
2019;SDS011;1014;51.960;8.542;2023-08-07T00:12:03;25.97;;;23.83;;
2019;SDS011;1014;51.960;8.542;2023-08-07T00:14:32;27.90;;;25.77;;
2019;SDS011;1014;51.960;8.542;2023-08-07T00:17:00;27.23;;;25.33;;
2019;SDS011;1014;51.960;8.542;2023-08-07T00:19:27;25.23;;;23.53;;
2019;SDS011;1014;51.960;8.542;2023-08-07T00:21:54;25.87;;;23.97;;
2019;SDS011;1014;51.960;8.542;2023-08-07T00:24:21;27.47;;;25.00;;
2019;SDS011;1014;51.960;8.542;2023-08-07T00:26:50;24.33;;;22.73;;
2019;SDS011;1014;51.960;8.542;2023-08-07T00:29:17;27.07;;;24.60;;
2019;SDS011;1014;51.960;8.542;2023-08-07T00:31:44;27.67;;;24.97;;
2019;SDS011;1014;51.960;8.542;2023-08-07T00:34:11;26.63;;;24.50;;
2019;SDS011;1014;51.960;8.542;2023-08-07T00:36:38;28.30;;;25.77;;
2019;SDS011;1014;51.960;8.542;2023-08-07T00:39:05;26.43;;;24.30;;
2019;SDS011;1014;51.960;8.542;2023-08-07T00:41:33;29.17;;;26.97;;
2019;SDS011;1014;51.960;8.542;2023-08-07T00:44:01;27.07;;;25.07;;
2019;SDS011;1014;51.960;8.542;2023-08-07T00:46:29;26.60;;;24.80;;
2019;SDS011;1014;51.960;8.542;2023-08-07T00:48:58;27.00;;;25.10;;
2019;SDS011;1014;51.960;8.542;2023-08-07T00:51:25;27.03;;;25.20;;
2019;SDS011;1014;51.960;8.542;2023-08-07T00:53:52;27.63;;;24.43;;
2019;SDS011;1014;51.960;8.542;2023-08-07T00:56:32;26.30;;;24.20;;
2019;SDS011;1014;51.960;8.542;2023-08-07T00:59:01;26.43;;;24.60;;
2019;SDS011;1014;51.960;8.542;2023-08-07T01:01:28;28.03;;;25.90;;
2019;SDS011;1014;51.960;8.542;2023-08-07T01:03:56;26.80;;;25.00;;
2019;SDS011;1014;51.960;8.542;2023-08-07T01:06:23;26.80;;;25.00;;
2019;SDS011;1014;51.960;8.542;2023-08-07T01:08:50;28.70;;;26.37;;
2019;SDS011;1014;51.960;8.542;2023-08-07T01:11:20;27.37;;;25.17;;
2019;SDS011;1014;51.960;8.542;2023-08-07T01:13:51;25.43;;;23.73;;
2019;SDS011;1014;51.960;8.542;2023-08-07T01:16:26;27.80;;;25.70;;
2019;SDS011;1014;51.960;8.542;2023-08-07T01:18:55;25.20;;;23.40;;
2019;SDS011;1014;51.960;8.542;2023-08-07T01:21:23;28.30;;;26.13;;
2019;SDS011;1014;51.960;8.542;2023-08-07T01:23:52;27.10;;;25.10;;
2019;SDS011;1014;51.960;8.542;2023-08-07T01:26:20;28.53;;;26.23;;
2019;SDS011;1014;51.960;8.542;2023-08-07T01:28:49;30.60;;;28.00;;
2019;SDS011;1014;51.960;8.542;2023-08-07T01:31:21;27.10;;;25.17;;
2019;SDS011;1014;51.960;8.542;2023-08-07T01:33:51;28.17;;;26.03;;
2019;SDS011;1014;51.960;8.542;2023-08-07T01:36:22;29.73;;;27.27;;
2019;SDS011;1014;51.960;8.542;2023-08-07T01:38:51;29.97;;;27.87;;
2019;SDS011;1014;51.960;8.542;2023-08-07T01:41:19;30.23;;;27.50;;
2019;SDS011;1014;51.960;8.542;2023-08-07T01:43:47;28.87;;;26.57;;
2019;SDS011;1014;51.960;8.542;2023-08-07T01:46:14;30.23;;;27.50;;
2019;SDS011;1014;51.960;8.542;2023-08-07T01:48:42;28.17;;;25.60;;
2019;SDS011;1014;51.960;8.542;2023-08-07T01:51:10;29.03;;;26.77;;
2019;SDS011;1014;51.960;8.542;2023-08-07T01:53:37;31.47;;;28.37;;
2019;SDS011;1014;51.960;8.542;2023-08-07T01:56:06;30.03;;;27.40;;
2019;SDS011;1014;51.960;8.542;2023-08-07T01:58:33;31.17;;;28.77;;
2019;SDS011;1014;51.960;8.542;2023-08-07T02:01:00;29.70;;;27.20;;
2019;SDS011;1014;51.960;8.542;2023-08-07T02:03:27;30.03;;;27.63;;
2019;SDS011;1014;51.960;8.542;2023-08-07T02:06:00;29.90;;;27.07;;
2019;SDS011;1014;51.960;8.542;2023-08-07T02:08:28;27.50;;;25.13;;
2019;SDS011;1014;51.960;8.542;2023-08-07T02:10:55;29.27;;;26.87;;
2019;SDS011;1014;51.960;8.542;2023-08-07T02:13:23;29.90;;;27.20;;
2019;SDS011;1014;51.960;8.542;2023-08-07T02:15:51;28.90;;;26.63;;
2019;SDS011;1014;51.960;8.542;2023-08-07T02:18:18;29.17;;;26.80;;
2019;SDS011;1014;51.960;8.542;2023-08-07T02:20:45;29.70;;;27.00;;
2019;SDS011;1014;51.960;8.542;2023-08-07T02:23:12;29.23;;;26.53;;
2019;SDS011;1014;51.960;8.542;2023-08-07T02:25:39;29.37;;;26.90;;
2019;SDS011;1014;51.960;8.542;2023-08-07T02:28:06;29.43;;;27.00;;
2019;SDS011;1014;51.960;8.542;2023-08-07T02:30:34;29.87;;;27.30;;
2019;SDS011;1014;51.960;8.542;2023-08-07T02:33:01;32.37;;;29.27;;
2019;SDS011;1014;51.960;8.542;2023-08-07T02:35:28;31.07;;;28.63;;
2019;SDS011;1014;51.960;8.542;2023-08-07T02:37:56;29.17;;;26.47;;
2019;SDS011;1014;51.960;8.542;2023-08-07T02:40:23;30.20;;;27.90;;
2019;SDS011;1014;51.960;8.542;2023-08-07T02:42:50;29.80;;;27.53;;
2019;SDS011;1014;51.960;8.542;2023-08-07T02:45:17;32.23;;;29.53;;
2019;SDS011;1014;51.960;8.542;2023-08-07T02:47:46;32.00;;;29.30;;
2019;SDS011;1014;51.960;8.542;2023-08-07T02:50:13;33.50;;;30.60;;
2019;SDS011;1014;51.960;8.542;2023-08-07T02:52:40;30.87;;;28.17;;
2019;SDS011;1014;51.960;8.542;2023-08-07T02:55:07;30.57;;;28.13;;
2019;SDS011;1014;51.960;8.542;2023-08-07T02:57:34;31.97;;;29.20;;
2019;SDS011;1014;51.960;8.542;2023-08-07T03:00:01;29.40;;;27.10;;
2019;SDS011;1014;51.960;8.542;2023-08-07T03:02:31;28.23;;;25.90;;
2019;SDS011;1014;51.960;8.542;2023-08-07T03:04:59;28.83;;;26.57;;
2019;SDS011;1014;51.960;8.542;2023-08-07T03:07:35;29.47;;;27.07;;
2019;SDS011;1014;51.960;8.542;2023-08-07T03:10:02;27.07;;;25.13;;
2019;SDS011;1014;51.960;8.542;2023-08-07T03:12:29;28.60;;;26.37;;
2019;SDS011;1014;51.960;8.542;2023-08-07T03:14:57;32.57;;;29.43;;
2019;SDS011;1014;51.960;8.542;2023-08-07T03:17:24;29.27;;;26.97;;
2019;SDS011;1014;51.960;8.542;2023-08-07T03:19:51;29.80;;;27.60;;
2019;SDS011;1014;51.960;8.542;2023-08-07T03:22:20;29.23;;;26.93;;
2019;SDS011;1014;51.960;8.542;2023-08-07T03:24:47;30.50;;;27.50;;
2019;SDS011;1014;51.960;8.542;2023-08-07T03:27:14;28.20;;;26.00;;
2019;SDS011;1014;51.960;8.542;2023-08-07T03:29:41;28.37;;;26.07;;
2019;SDS011;1014;51.960;8.542;2023-08-07T03:32:08;29.00;;;26.33;;
2019;SDS011;1014;51.960;8.542;2023-08-07T03:34:35;29.37;;;26.90;;
2019;SDS011;1014;51.960;8.542;2023-08-07T03:37:02;37.77;;;30.10;;
2019;SDS011;1014;51.960;8.542;2023-08-07T03:39:31;28.87;;;26.33;;
2019;SDS011;1014;51.960;8.542;2023-08-07T03:41:58;29.90;;;27.33;;
2019;SDS011;1014;51.960;8.542;2023-08-07T03:44:25;24.73;;;22.83;;
2019;SDS011;1014;51.960;8.542;2023-08-07T03:46:52;30.30;;;27.57;;
2019;SDS011;1014;51.960;8.542;2023-08-07T03:49:21;31.40;;;28.60;;
2019;SDS011;1014;51.960;8.542;2023-08-07T03:51:48;30.97;;;28.33;;
2019;SDS011;1014;51.960;8.542;2023-08-07T03:54:15;30.83;;;27.73;;
2019;SDS011;1014;51.960;8.542;2023-08-07T03:56:44;30.13;;;27.60;;
2019;SDS011;1014;51.960;8.542;2023-08-07T03:59:11;32.43;;;29.03;;
2019;SDS011;1014;51.960;8.542;2023-08-07T04:01:39;29.50;;;27.00;;
2019;SDS011;1014;51.960;8.542;2023-08-07T04:04:06;31.27;;;28.67;;
2019;SDS011;1014;51.960;8.542;2023-08-07T04:06:33;30.67;;;28.00;;
2019;SDS011;1014;51.960;8.542;2023-08-07T04:09:00;32.30;;;29.50;;
2019;SDS011;1014;51.960;8.542;2023-08-07T04:11:28;32.27;;;29.20;;
2019;SDS011;1014;51.960;8.542;2023-08-07T04:13:57;31.10;;;28.30;;
2019;SDS011;1014;51.960;8.542;2023-08-07T04:16:24;30.83;;;28.07;;
2019;SDS011;1014;51.960;8.542;2023-08-07T04:18:51;29.53;;;26.80;;
2019;SDS011;1014;51.960;8.542;2023-08-07T04:21:18;28.43;;;26.13;;
2019;SDS011;1014;51.960;8.542;2023-08-07T04:23:45;27.93;;;25.83;;
2019;SDS011;1014;51.960;8.542;2023-08-07T04:26:12;27.33;;;24.93;;
2019;SDS011;1014;51.960;8.542;2023-08-07T04:28:39;29.60;;;26.90;;
2019;SDS011;1014;51.960;8.542;2023-08-07T04:31:07;27.83;;;25.73;;
2019;SDS011;1014;51.960;8.542;2023-08-07T04:33:34;27.73;;;25.57;;
2019;SDS011;1014;51.960;8.542;2023-08-07T04:36:02;27.40;;;25.40;;
2019;SDS011;1014;51.960;8.542;2023-08-07T04:38:29;26.87;;;24.97;;
2019;SDS011;1014;51.960;8.542;2023-08-07T04:40:56;28.40;;;26.10;;
2019;SDS011;1014;51.960;8.542;2023-08-07T04:43:23;25.40;;;23.70;;
2019;SDS011;1014;51.960;8.542;2023-08-07T04:45:50;27.00;;;25.07;;
2019;SDS011;1014;51.960;8.542;2023-08-07T04:48:19;25.60;;;23.90;;
2019;SDS011;1014;51.960;8.542;2023-08-07T04:50:47;27.00;;;25.10;;
2019;SDS011;1014;51.960;8.542;2023-08-07T04:53:14;25.10;;;23.33;;
2019;SDS011;1014;51.960;8.542;2023-08-07T04:55:41;25.33;;;23.53;;
2019;SDS011;1014;51.960;8.542;2023-08-07T04:58:08;27.67;;;25.47;;
2019;SDS011;1014;51.960;8.542;2023-08-07T05:00:36;25.07;;;23.30;;
2019;SDS011;1014;51.960;8.542;2023-08-07T05:03:03;26.77;;;24.77;;
2019;SDS011;1014;51.960;8.542;2023-08-07T05:05:31;25.30;;;23.60;;
2019;SDS011;1014;51.960;8.542;2023-08-07T05:07:58;25.83;;;24.03;;
2019;SDS011;1014;51.960;8.542;2023-08-07T05:10:25;25.37;;;23.47;;
2019;SDS011;1014;51.960;8.542;2023-08-07T05:12:52;23.70;;;22.00;;
2019;SDS011;1014;51.960;8.542;2023-08-07T05:15:20;23.47;;;21.87;;
2019;SDS011;1014;51.960;8.542;2023-08-07T05:17:48;25.47;;;23.77;;
2019;SDS011;1014;51.960;8.542;2023-08-07T05:20:15;24.23;;;22.70;;
2019;SDS011;1014;51.960;8.542;2023-08-07T05:22:43;24.80;;;23.27;;
2019;SDS011;1014;51.960;8.542;2023-08-07T05:25:10;24.90;;;23.30;;
2019;SDS011;1014;51.960;8.542;2023-08-07T05:27:40;25.00;;;23.20;;
2019;SDS011;1014;51.960;8.542;2023-08-07T05:30:07;25.27;;;23.47;;
2019;SDS011;1014;51.960;8.542;2023-08-07T05:32:34;26.27;;;24.20;;
2019;SDS011;1014;51.960;8.542;2023-08-07T05:35:02;24.07;;;22.47;;
2019;SDS011;1014;51.960;8.542;2023-08-07T05:37:36;24.40;;;23.00;;
2019;SDS011;1014;51.960;8.542;2023-08-07T05:40:05;23.50;;;22.03;;
2019;SDS011;1014;51.960;8.542;2023-08-07T05:42:33;24.90;;;23.27;;
2019;SDS011;1014;51.960;8.542;2023-08-07T05:45:00;23.20;;;21.87;;
2019;SDS011;1014;51.960;8.542;2023-08-07T05:47:27;24.73;;;22.83;;
2019;SDS011;1014;51.960;8.542;2023-08-07T05:49:54;25.40;;;23.80;;
2019;SDS011;1014;51.960;8.542;2023-08-07T05:52:21;23.33;;;21.93;;
2019;SDS011;1014;51.960;8.542;2023-08-07T05:54:49;24.90;;;23.30;;
2019;SDS011;1014;51.960;8.542;2023-08-07T05:57:18;24.20;;;22.80;;
2019;SDS011;1014;51.960;8.542;2023-08-07T05:59:45;26.67;;;25.03;;
2019;SDS011;1014;51.960;8.542;2023-08-07T06:02:12;24.70;;;23.20;;
2019;SDS011;1014;51.960;8.542;2023-08-07T06:04:39;25.77;;;24.10;;
2019;SDS011;1014;51.960;8.542;2023-08-07T06:07:07;26.37;;;24.37;;
2019;SDS011;1014;51.960;8.542;2023-08-07T06:09:34;25.17;;;23.40;;
2019;SDS011;1014;51.960;8.542;2023-08-07T06:12:02;25.60;;;23.90;;
2019;SDS011;1014;51.960;8.542;2023-08-07T06:14:30;26.23;;;24.40;;
2019;SDS011;1014;51.960;8.542;2023-08-07T06:16:58;25.00;;;23.43;;
2019;SDS011;1014;51.960;8.542;2023-08-07T06:19:26;26.20;;;24.30;;
2019;SDS011;1014;51.960;8.542;2023-08-07T06:21:53;26.50;;;24.80;;
2019;SDS011;1014;51.960;8.542;2023-08-07T06:24:21;25.73;;;24.13;;
2019;SDS011;1014;51.960;8.542;2023-08-07T06:26:49;26.03;;;24.20;;
2019;SDS011;1014;51.960;8.542;2023-08-07T06:29:16;26.10;;;24.30;;
2019;SDS011;1014;51.960;8.542;2023-08-07T06:31:44;25.63;;;24.20;;
2019;SDS011;1014;51.960;8.542;2023-08-07T06:34:11;24.83;;;23.23;;
2019;SDS011;1014;51.960;8.542;2023-08-07T06:36:41;25.20;;;23.70;;
2019;SDS011;1014;51.960;8.542;2023-08-07T06:39:08;24.07;;;22.73;;
2019;SDS011;1014;51.960;8.542;2023-08-07T06:41:35;24.90;;;23.60;;
2019;SDS011;1014;51.960;8.542;2023-08-07T06:44:02;24.63;;;23.13;;
2019;SDS011;1014;51.960;8.542;2023-08-07T06:46:29;24.93;;;23.47;;
2019;SDS011;1014;51.960;8.542;2023-08-07T06:48:57;25.13;;;23.80;;
2019;SDS011;1014;51.960;8.542;2023-08-07T06:51:24;25.13;;;23.93;;
2019;SDS011;1014;51.960;8.542;2023-08-07T06:53:51;25.97;;;24.57;;
2019;SDS011;1014;51.960;8.542;2023-08-07T06:56:21;25.57;;;24.17;;
2019;SDS011;1014;51.960;8.542;2023-08-07T06:58:48;25.17;;;23.97;;
2019;SDS011;1014;51.960;8.542;2023-08-07T07:01:15;26.73;;;25.30;;
2019;SDS011;1014;51.960;8.542;2023-08-07T07:03:42;24.93;;;23.73;;
2019;SDS011;1014;51.960;8.542;2023-08-07T07:06:11;23.50;;;22.17;;
2019;SDS011;1014;51.960;8.542;2023-08-07T07:08:39;24.83;;;23.53;;
2019;SDS011;1014;51.960;8.542;2023-08-07T07:11:06;24.83;;;23.63;;
2019;SDS011;1014;51.960;8.542;2023-08-07T07:13:33;24.63;;;23.33;;
2019;SDS011;1014;51.960;8.542;2023-08-07T07:16:01;26.53;;;25.13;;
2019;SDS011;1014;51.960;8.542;2023-08-07T07:18:28;27.33;;;25.50;;
2019;SDS011;1014;51.960;8.542;2023-08-07T07:20:58;26.97;;;25.50;;
2019;SDS011;1014;51.960;8.542;2023-08-07T07:23:27;27.27;;;25.87;;
2019;SDS011;1014;51.960;8.542;2023-08-07T07:25:54;26.90;;;25.60;;
2019;SDS011;1014;51.960;8.542;2023-08-07T07:28:22;26.70;;;25.07;;
2019;SDS011;1014;51.960;8.542;2023-08-07T07:30:49;27.50;;;25.67;;
2019;SDS011;1014;51.960;8.542;2023-08-07T07:33:16;24.20;;;22.90;;
2019;SDS011;1014;51.960;8.542;2023-08-07T07:35:43;24.33;;;22.93;;
2019;SDS011;1014;51.960;8.542;2023-08-07T07:38:10;26.80;;;25.20;;
2019;SDS011;1014;51.960;8.542;2023-08-07T07:40:39;27.23;;;25.73;;
2019;SDS011;1014;51.960;8.542;2023-08-07T07:43:06;25.60;;;24.10;;
2019;SDS011;1014;51.960;8.542;2023-08-07T07:45:33;25.60;;;24.20;;
2019;SDS011;1014;51.960;8.542;2023-08-07T07:48:00;24.23;;;22.73;;
2019;SDS011;1014;51.960;8.542;2023-08-07T07:50:28;26.27;;;24.57;;
2019;SDS011;1014;51.960;8.542;2023-08-07T07:52:55;27.50;;;26.00;;
2019;SDS011;1014;51.960;8.542;2023-08-07T07:55:22;29.23;;;27.63;;
2019;SDS011;1014;51.960;8.542;2023-08-07T07:57:50;30.93;;;28.97;;
2019;SDS011;1014;51.960;8.542;2023-08-07T08:00:18;33.47;;;31.57;;
2019;SDS011;1014;51.960;8.542;2023-08-07T08:02:45;36.10;;;33.70;;
2019;SDS011;1014;51.960;8.542;2023-08-07T08:05:12;35.60;;;33.17;;
2019;SDS011;1014;51.960;8.542;2023-08-07T08:07:42;34.43;;;32.50;;
2019;SDS011;1014;51.960;8.542;2023-08-07T08:10:09;36.80;;;34.30;;
2019;SDS011;1014;51.960;8.542;2023-08-07T08:12:37;37.37;;;35.13;;
2019;SDS011;1014;51.960;8.542;2023-08-07T08:15:06;34.47;;;32.20;;
2019;SDS011;1014;51.960;8.542;2023-08-07T08:17:33;33.83;;;31.67;;
2019;SDS011;1014;51.960;8.542;2023-08-07T08:20:00;32.30;;;30.50;;
2019;SDS011;1014;51.960;8.542;2023-08-07T08:22:27;32.77;;;30.77;;
2019;SDS011;1014;51.960;8.542;2023-08-07T08:24:54;31.30;;;29.50;;
2019;SDS011;1014;51.960;8.542;2023-08-07T08:27:21;30.83;;;28.93;;
2019;SDS011;1014;51.960;8.542;2023-08-07T08:29:50;30.20;;;28.50;;
2019;SDS011;1014;51.960;8.542;2023-08-07T08:32:18;30.20;;;28.40;;
2019;SDS011;1014;51.960;8.542;2023-08-07T08:34:45;31.30;;;29.40;;
2019;SDS011;1014;51.960;8.542;2023-08-07T08:37:14;28.70;;;27.20;;
2019;SDS011;1014;51.960;8.542;2023-08-07T08:39:41;28.27;;;26.47;;
2019;SDS011;1014;51.960;8.542;2023-08-07T08:42:08;27.43;;;25.87;;
2019;SDS011;1014;51.960;8.542;2023-08-07T08:44:38;28.07;;;26.43;;
2019;SDS011;1014;51.960;8.542;2023-08-07T08:47:06;27.30;;;25.80;;
2019;SDS011;1014;51.960;8.542;2023-08-07T08:49:35;32.30;;;29.60;;
2019;SDS011;1014;51.960;8.542;2023-08-07T08:52:02;38.03;;;34.50;;
2019;SDS011;1014;51.960;8.542;2023-08-07T08:54:30;32.10;;;29.50;;
2019;SDS011;1014;51.960;8.542;2023-08-07T08:56:57;32.47;;;29.87;;
2019;SDS011;1014;51.960;8.542;2023-08-07T08:59:24;32.33;;;29.87;;
2019;SDS011;1014;51.960;8.542;2023-08-07T09:01:52;30.27;;;28.27;;
2019;SDS011;1014;51.960;8.542;2023-08-07T09:04:19;33.30;;;30.60;;
2019;SDS011;1014;51.960;8.542;2023-08-07T09:06:47;31.33;;;29.20;;
2019;SDS011;1014;51.960;8.542;2023-08-07T09:09:14;33.27;;;30.97;;
2019;SDS011;1014;51.960;8.542;2023-08-07T09:11:43;31.50;;;29.33;;
2019;SDS011;1014;51.960;8.542;2023-08-07T09:14:13;33.63;;;31.27;;
2019;SDS011;1014;51.960;8.542;2023-08-07T09:16:42;32.43;;;30.13;;
2019;SDS011;1014;51.960;8.542;2023-08-07T09:19:09;31.93;;;29.60;;
2019;SDS011;1014;51.960;8.542;2023-08-07T09:21:37;31.23;;;29.03;;
2019;SDS011;1014;51.960;8.542;2023-08-07T09:24:05;35.10;;;32.70;;
2019;SDS011;1014;51.960;8.542;2023-08-07T09:26:32;32.63;;;30.33;;
2019;SDS011;1014;51.960;8.542;2023-08-07T09:29:00;31.77;;;29.23;;
2019;SDS011;1014;51.960;8.542;2023-08-07T09:31:28;31.40;;;29.10;;
2019;SDS011;1014;51.960;8.542;2023-08-07T09:34:00;29.27;;;26.90;;
2019;SDS011;1014;51.960;8.542;2023-08-07T09:36:29;29.17;;;27.20;;
2019;SDS011;1014;51.960;8.542;2023-08-07T09:38:56;30.07;;;27.70;;
2019;SDS011;1014;51.960;8.542;2023-08-07T09:41:24;28.73;;;26.20;;
2019;SDS011;1014;51.960;8.542;2023-08-07T09:43:52;28.30;;;26.20;;
2019;SDS011;1014;51.960;8.542;2023-08-07T09:46:20;30.00;;;27.53;;
2019;SDS011;1014;51.960;8.542;2023-08-07T09:48:47;29.20;;;27.20;;
2019;SDS011;1014;51.960;8.542;2023-08-07T09:51:14;29.20;;;27.13;;
2019;SDS011;1014;51.960;8.542;2023-08-07T09:53:40;28.17;;;26.27;;
2019;SDS011;1014;51.960;8.542;2023-08-07T09:56:07;26.70;;;25.00;;
2019;SDS011;1014;51.960;8.542;2023-08-07T09:58:35;25.60;;;24.20;;
2019;SDS011;1014;51.960;8.542;2023-08-07T10:01:03;24.50;;;22.97;;
2019;SDS011;1014;51.960;8.542;2023-08-07T10:03:31;23.93;;;22.03;;
2019;SDS011;1014;51.960;8.542;2023-08-07T10:05:58;23.70;;;22.27;;
2019;SDS011;1014;51.960;8.542;2023-08-07T10:08:25;26.90;;;25.03;;
2019;SDS011;1014;51.960;8.542;2023-08-07T10:10:53;24.03;;;22.23;;
2019;SDS011;1014;51.960;8.542;2023-08-07T10:13:20;21.23;;;19.70;;
2019;SDS011;1014;51.960;8.542;2023-08-07T10:15:49;25.30;;;23.80;;
2019;SDS011;1014;51.960;8.542;2023-08-07T10:18:17;25.67;;;24.10;;
2019;SDS011;1014;51.960;8.542;2023-08-07T10:20:46;24.73;;;23.20;;
2019;SDS011;1014;51.960;8.542;2023-08-07T10:23:13;25.10;;;23.17;;
2019;SDS011;1014;51.960;8.542;2023-08-07T10:25:42;25.63;;;24.07;;
2019;SDS011;1014;51.960;8.542;2023-08-07T10:28:12;27.17;;;25.27;;
2019;SDS011;1014;51.960;8.542;2023-08-07T10:30:40;27.73;;;25.93;;
2019;SDS011;1014;51.960;8.542;2023-08-07T10:33:09;28.00;;;25.87;;
2019;SDS011;1014;51.960;8.542;2023-08-07T10:35:37;26.50;;;24.77;;
2019;SDS011;1014;51.960;8.542;2023-08-07T10:38:10;79.07;;;51.83;;
2019;SDS011;1014;51.960;8.542;2023-08-07T10:43:20;28.37;;;26.43;;
2019;SDS011;1014;51.960;8.542;2023-08-07T10:45:50;29.20;;;27.30;;
2019;SDS011;1014;51.960;8.542;2023-08-07T10:48:19;31.63;;;29.33;;
2019;SDS011;1014;51.960;8.542;2023-08-07T10:50:51;30.53;;;28.40;;
2019;SDS011;1014;51.960;8.542;2023-08-07T10:53:28;29.50;;;27.30;;
2019;SDS011;1014;51.960;8.542;2023-08-07T10:55:56;30.73;;;28.23;;
2019;SDS011;1014;51.960;8.542;2023-08-07T10:58:25;33.67;;;31.07;;
2019;SDS011;1014;51.960;8.542;2023-08-07T11:00:52;33.20;;;30.80;;
2019;SDS011;1014;51.960;8.542;2023-08-07T11:03:41;34.70;;;32.40;;
2019;SDS011;1014;51.960;8.542;2023-08-07T11:06:09;34.40;;;32.17;;
2019;SDS011;1014;51.960;8.542;2023-08-07T11:08:36;34.50;;;32.40;;
2019;SDS011;1014;51.960;8.542;2023-08-07T11:11:04;34.33;;;31.87;;
2019;SDS011;1014;51.960;8.542;2023-08-07T11:13:31;34.37;;;31.77;;
2019;SDS011;1014;51.960;8.542;2023-08-07T11:15:58;31.77;;;29.77;;
2019;SDS011;1014;51.960;8.542;2023-08-07T11:18:25;29.60;;;27.70;;
2019;SDS011;1014;51.960;8.542;2023-08-07T11:20:54;30.00;;;28.03;;
2019;SDS011;1014;51.960;8.542;2023-08-07T11:23:22;28.60;;;26.70;;
2019;SDS011;1014;51.960;8.542;2023-08-07T11:25:49;29.47;;;27.37;;
2019;SDS011;1014;51.960;8.542;2023-08-07T11:28:17;31.03;;;28.53;;
2019;SDS011;1014;51.960;8.542;2023-08-07T11:30:44;29.97;;;28.07;;
2019;SDS011;1014;51.960;8.542;2023-08-07T11:33:11;33.10;;;30.60;;
2019;SDS011;1014;51.960;8.542;2023-08-07T11:35:40;35.47;;;32.77;;
2019;SDS011;1014;51.960;8.542;2023-08-07T11:38:09;34.83;;;32.17;;
2019;SDS011;1014;51.960;8.542;2023-08-07T11:40:36;34.40;;;31.80;;
2019;SDS011;1014;51.960;8.542;2023-08-07T11:43:03;37.83;;;34.93;;
2019;SDS011;1014;51.960;8.542;2023-08-07T11:45:30;35.50;;;32.70;;
2019;SDS011;1014;51.960;8.542;2023-08-07T11:47:57;33.97;;;31.23;;
2019;SDS011;1014;51.960;8.542;2023-08-07T11:50:24;33.37;;;31.07;;
2019;SDS011;1014;51.960;8.542;2023-08-07T11:52:51;34.10;;;31.50;;
2019;SDS011;1014;51.960;8.542;2023-08-07T11:55:20;36.30;;;33.70;;
2019;SDS011;1014;51.960;8.542;2023-08-07T11:57:47;36.33;;;33.47;;
2019;SDS011;1014;51.960;8.542;2023-08-07T12:00:14;35.33;;;32.83;;
2019;SDS011;1014;51.960;8.542;2023-08-07T12:02:42;33.23;;;30.90;;
2019;SDS011;1014;51.960;8.542;2023-08-07T12:05:09;33.03;;;30.43;;
2019;SDS011;1014;51.960;8.542;2023-08-07T12:07:37;33.20;;;30.30;;
2019;SDS011;1014;51.960;8.542;2023-08-07T12:10:04;27.87;;;25.67;;
2019;SDS011;1014;51.960;8.542;2023-08-07T12:12:35;25.43;;;23.70;;
2019;SDS011;1014;51.960;8.542;2023-08-07T12:15:02;27.40;;;23.40;;
2019;SDS011;1014;51.960;8.542;2023-08-07T12:17:31;23.93;;;22.53;;
2019;SDS011;1014;51.960;8.542;2023-08-07T12:19:58;21.60;;;20.30;;
2019;SDS011;1014;51.960;8.542;2023-08-07T12:22:27;21.97;;;20.37;;
2019;SDS011;1014;51.960;8.542;2023-08-07T12:24:54;22.00;;;20.47;;
2019;SDS011;1014;51.960;8.542;2023-08-07T12:27:24;21.63;;;19.83;;
2019;SDS011;1014;51.960;8.542;2023-08-07T12:29:52;22.50;;;20.83;;
2019;SDS011;1014;51.960;8.542;2023-08-07T12:32:19;21.20;;;19.67;;
2019;SDS011;1014;51.960;8.542;2023-08-07T12:34:46;21.30;;;19.87;;
2019;SDS011;1014;51.960;8.542;2023-08-07T12:37:15;20.87;;;19.63;;
2019;SDS011;1014;51.960;8.542;2023-08-07T12:39:42;22.90;;;21.00;;
2019;SDS011;1014;51.960;8.542;2023-08-07T12:42:09;24.60;;;22.90;;
2019;SDS011;1014;51.960;8.542;2023-08-07T12:44:36;24.20;;;22.87;;
2019;SDS011;1014;51.960;8.542;2023-08-07T12:47:05;24.07;;;22.13;;
2019;SDS011;1014;51.960;8.542;2023-08-07T12:49:32;25.37;;;23.60;;
2019;SDS011;1014;51.960;8.542;2023-08-07T12:51:59;26.17;;;24.33;;
2019;SDS011;1014;51.960;8.542;2023-08-07T12:54:26;26.20;;;24.40;;
2019;SDS011;1014;51.960;8.542;2023-08-07T12:56:53;28.57;;;26.67;;
2019;SDS011;1014;51.960;8.542;2023-08-07T12:59:21;27.83;;;25.87;;
2019;SDS011;1014;51.960;8.542;2023-08-07T13:01:48;27.37;;;25.00;;
2019;SDS011;1014;51.960;8.542;2023-08-07T13:04:16;26.87;;;24.70;;
2019;SDS011;1014;51.960;8.542;2023-08-07T13:06:43;27.30;;;25.33;;
2019;SDS011;1014;51.960;8.542;2023-08-07T13:09:10;26.63;;;25.03;;
2019;SDS011;1014;51.960;8.542;2023-08-07T13:11:38;26.17;;;24.73;;
2019;SDS011;1014;51.960;8.542;2023-08-07T13:14:05;25.80;;;24.40;;
2019;SDS011;1014;51.960;8.542;2023-08-07T13:16:32;25.30;;;23.70;;
2019;SDS011;1014;51.960;8.542;2023-08-07T13:18:59;26.53;;;24.57;;
2019;SDS011;1014;51.960;8.542;2023-08-07T13:21:27;26.67;;;25.07;;
2019;SDS011;1014;51.960;8.542;2023-08-07T13:23:54;26.27;;;25.07;;
2019;SDS011;1014;51.960;8.542;2023-08-07T13:26:21;28.27;;;26.63;;
2019;SDS011;1014;51.960;8.542;2023-08-07T13:28:48;26.80;;;25.27;;
2019;SDS011;1014;51.960;8.542;2023-08-07T13:31:15;27.90;;;26.23;;
2019;SDS011;1014;51.960;8.542;2023-08-07T13:33:43;28.63;;;26.70;;
2019;SDS011;1014;51.960;8.542;2023-08-07T13:36:10;30.07;;;28.37;;
2019;SDS011;1014;51.960;8.542;2023-08-07T13:38:38;35.87;;;33.57;;
2019;SDS011;1014;51.960;8.542;2023-08-07T13:41:05;31.77;;;29.97;;
2019;SDS011;1014;51.960;8.542;2023-08-07T13:43:33;32.30;;;30.07;;
2019;SDS011;1014;51.960;8.542;2023-08-07T13:46:00;31.10;;;29.40;;
2019;SDS011;1014;51.960;8.542;2023-08-07T13:48:27;30.37;;;28.40;;
2019;SDS011;1014;51.960;8.542;2023-08-07T13:50:54;30.77;;;28.97;;
2019;SDS011;1014;51.960;8.542;2023-08-07T13:53:21;29.77;;;27.90;;
2019;SDS011;1014;51.960;8.542;2023-08-07T13:55:55;28.20;;;26.23;;
2019;SDS011;1014;51.960;8.542;2023-08-07T13:58:22;29.10;;;27.47;;
2019;SDS011;1014;51.960;8.542;2023-08-07T14:00:49;28.17;;;26.67;;
2019;SDS011;1014;51.960;8.542;2023-08-07T14:03:16;30.20;;;28.47;;
2019;SDS011;1014;51.960;8.542;2023-08-07T14:05:43;30.90;;;29.17;;
2019;SDS011;1014;51.960;8.542;2023-08-07T14:08:10;27.83;;;26.10;;
2019;SDS011;1014;51.960;8.542;2023-08-07T14:10:37;28.93;;;26.97;;
2019;SDS011;1014;51.960;8.542;2023-08-07T14:13:07;26.10;;;24.70;;
2019;SDS011;1014;51.960;8.542;2023-08-07T14:15:34;26.03;;;24.73;;
2019;SDS011;1014;51.960;8.542;2023-08-07T14:18:01;25.73;;;24.30;;
2019;SDS011;1014;51.960;8.542;2023-08-07T14:20:28;26.27;;;24.83;;
2019;SDS011;1014;51.960;8.542;2023-08-07T14:22:55;25.83;;;24.13;;
2019;SDS011;1014;51.960;8.542;2023-08-07T14:25:22;24.43;;;22.90;;
2019;SDS011;1014;51.960;8.542;2023-08-07T14:27:49;23.77;;;22.27;;
2019;SDS011;1014;51.960;8.542;2023-08-07T14:30:18;23.20;;;22.00;;
2019;SDS011;1014;51.960;8.542;2023-08-07T14:32:45;22.10;;;20.80;;
2019;SDS011;1014;51.960;8.542;2023-08-07T14:35:12;23.60;;;22.00;;
2019;SDS011;1014;51.960;8.542;2023-08-07T14:37:39;21.93;;;20.37;;
2019;SDS011;1014;51.960;8.542;2023-08-07T14:40:07;22.10;;;20.53;;
2019;SDS011;1014;51.960;8.542;2023-08-07T14:42:34;22.27;;;20.90;;
2019;SDS011;1014;51.960;8.542;2023-08-07T14:45:01;21.50;;;20.30;;
2019;SDS011;1014;51.960;8.542;2023-08-07T14:47:37;22.57;;;21.20;;
2019;SDS011;1014;51.960;8.542;2023-08-07T14:50:04;21.13;;;19.80;;
2019;SDS011;1014;51.960;8.542;2023-08-07T14:52:31;22.50;;;21.00;;
2019;SDS011;1014;51.960;8.542;2023-08-07T14:54:58;22.87;;;21.37;;